METAR Formatted Surface Weather Observation
Issued by NWS

Home | Current Version | Previous Version | Text Only | Print | Product List | Glossary On
Versions: 1 2 3 4 5 6 7
000
SAUS41 KPHI 211405
MTRNEL
METAR KNEL 211400Z AUTO 00000KT 10SM OVC008 22/19 A2986 RMK AO2
SLP108 T02170194



USA.gov is the U.S. government's official web portal to all federal, state and local government web resources and services.